Time;durP1;ratioP1;P1;durP2;ratioP2;P2;SDS_P1;SDS_P2;PMS_P1;PMS_P2;Temp;Humidity;BMP_temperature;BMP_pressure;BME280_temperature;BME280_humidity;BME280_pressure;Samples;Min_cycle;Max_cycle;Signal;HPM_P1;HPM_P2
2023/02/07 00:00:14;;;;;;;15.20;8.87;;;1.10;99.90;;;;;;4933231;29;20202;-83
2023/02/07 00:02:43;;;;;;;15.40;8.87;;;1.10;99.90;;;;;;4932577;29;20249;-90
2023/02/07 00:05:10;;;;;;;13.80;8.37;;;1.10;99.90;;;;;;4933001;29;20222;-88
2023/02/07 00:07:37;;;;;;;13.57;8.47;;;1.10;99.90;;;;;;4932072;29;20277;-84
2023/02/07 00:10:05;;;;;;;19.20;8.40;;;1.00;99.90;;;;;;4932209;29;20253;-86
2023/02/07 00:12:32;;;;;;;16.07;8.53;;;1.00;99.90;;;;;;4929092;29;20615;-87
2023/02/07 00:15:01;;;;;;;12.83;8.73;;;1.00;99.90;;;;;;4928015;29;20214;-79
2023/02/07 00:17:29;;;;;;;17.40;8.40;;;1.00;99.90;;;;;;4928712;29;20249;-80
2023/02/07 00:19:56;;;;;;;15.20;8.77;;;1.00;99.90;;;;;;4929533;29;20210;-80
2023/02/07 00:22:23;;;;;;;15.17;8.63;;;1.00;99.90;;;;;;4940245;29;20209;-83
2023/02/07 00:24:50;;;;;;;13.00;8.10;;;1.00;99.90;;;;;;4953198;29;20296;-89
2023/02/07 00:27:17;;;;;;;15.13;8.60;;;0.90;99.90;;;;;;4952845;28;20920;-81
2023/02/07 00:29:44;;;;;;;13.07;8.43;;;0.90;99.90;;;;;;4948088;29;20566;-79
2023/02/07 00:32:12;;;;;;;12.43;7.43;;;0.90;99.90;;;;;;4947949;28;20198;-78
2023/02/07 00:34:39;;;;;;;15.00;7.37;;;0.90;99.90;;;;;;4949262;28;20233;-88
2023/02/07 00:37:07;;;;;;;12.60;7.53;;;0.90;99.90;;;;;;4952946;28;20335;-91
2023/02/07 00:39:34;;;;;;;11.93;7.47;;;0.90;99.90;;;;;;4952296;29;20205;-89
2023/02/07 00:42:01;;;;;;;12.43;7.20;;;0.90;99.90;;;;;;4933776;28;20202;-86
2023/02/07 00:44:28;;;;;;;10.50;7.47;;;0.80;99.90;;;;;;4932962;29;20869;-87
2023/02/07 00:46:55;;;;;;;17.13;9.87;;;0.80;99.90;;;;;;4933256;29;20779;-87
2023/02/07 00:49:23;;;;;;;13.23;8.40;;;0.80;99.90;;;;;;4933803;29;20293;-91
2023/02/07 00:51:50;;;;;;;17.00;8.43;;;0.80;99.90;;;;;;4933442;29;20261;-90
2023/02/07 00:54:18;;;;;;;14.47;8.00;;;0.80;99.90;;;;;;4952908;29;20217;-90
2023/02/07 00:56:45;;;;;;;11.63;7.97;;;0.80;99.90;;;;;;4952257;29;20295;-88
2023/02/07 00:59:11;;;;;;;12.10;8.17;;;0.70;99.90;;;;;;4951316;28;20206;-80
2023/02/07 01:01:38;;;;;;;14.20;8.60;;;0.70;99.90;;;;;;4944722;28;20237;-82
2023/02/07 01:04:05;;;;;;;13.13;7.50;;;0.70;99.90;;;;;;4931558;29;20237;-89
2023/02/07 01:06:35;;;;;;;14.53;8.07;;;0.70;99.90;;;;;;4931289;28;20298;-83
2023/02/07 01:09:04;;;;;;;16.63;8.87;;;0.60;99.90;;;;;;4931072;29;20849;-80
2023/02/07 01:11:31;;;;;;;18.43;9.67;;;0.60;99.90;;;;;;4930333;29;20346;-80
2023/02/07 01:13:59;;;;;;;13.23;8.50;;;0.60;99.90;;;;;;4930339;29;20210;-82
2023/02/07 01:16:28;;;;;;;16.17;9.63;;;0.60;99.90;;;;;;4931158;29;20293;-84
2023/02/07 01:18:56;;;;;;;15.30;8.70;;;0.60;99.90;;;;;;4930450;29;20210;-86
2023/02/07 01:21:24;;;;;;;19.67;9.53;;;0.50;99.90;;;;;;4930579;29;20197;-83
2023/02/07 01:23:55;;;;;;;20.93;9.43;;;0.50;99.90;;;;;;4928053;29;20294;-80
2023/02/07 01:26:23;;;;;;;16.70;10.17;;;0.50;99.90;;;;;;4927534;29;20201;-81
2023/02/07 01:28:50;;;;;;;18.70;9.73;;;0.40;99.90;;;;;;4927879;29;20216;-82
2023/02/07 01:31:17;;;;;;;16.53;9.00;;;0.40;99.90;;;;;;4928311;29;20426;-82
2023/02/07 01:33:43;;;;;;;16.07;9.10;;;0.40;99.90;;;;;;4927130;29;20210;-80
2023/02/07 01:36:13;;;;;;;15.83;9.00;;;0.40;99.90;;;;;;4927493;29;20244;-81
2023/02/07 01:38:40;;;;;;;16.00;8.93;;;0.40;99.90;;;;;;4927480;29;20228;-79
2023/02/07 01:41:09;;;;;;;16.63;8.53;;;0.40;99.90;;;;;;4927213;29;20205;-83
2023/02/07 01:43:56;;;;;;;19.27;9.13;;;0.40;99.90;;;;;;4925569;29;20301;-81
2023/02/07 01:46:23;;;;;;;18.27;9.77;;;0.50;99.90;;;;;;4926415;29;20208;-82
2023/02/07 01:48:53;;;;;;;17.03;9.03;;;0.50;99.90;;;;;;4925388;29;20205;-80
2023/02/07 01:51:21;;;;;;;14.97;8.17;;;0.50;99.90;;;;;;4925546;28;20275;-80
2023/02/07 01:53:48;;;;;;;15.83;9.60;;;0.40;99.90;;;;;;4924291;29;20637;-81
2023/02/07 01:56:17;;;;;;;14.77;8.07;;;0.40;99.90;;;;;;4927518;29;20309;-87
2023/02/07 01:58:45;;;;;;;12.33;7.70;;;0.40;99.90;;;;;;4932532;29;20604;-87
2023/02/07 02:01:17;;;;;;;15.07;9.00;;;0.40;99.90;;;;;;4931702;29;20911;-81
2023/02/07 02:03:49;;;;;;;13.40;7.43;;;0.40;99.90;;;;;;4948592;28;20300;-86
2023/02/07 02:06:16;;;;;;;15.87;8.23;;;0.40;99.90;;;;;;4951533;28;20203;-87
2023/02/07 02:08:44;;;;;;;14.97;8.57;;;0.40;99.90;;;;;;4950095;29;20208;-87
2023/02/07 02:11:29;;;;;;;15.60;8.80;;;0.30;99.90;;;;;;4950491;29;20624;-88
2023/02/07 02:14:06;;;;;;;18.00;9.23;;;0.30;99.90;;;;;;4951289;29;20213;-80
2023/02/07 02:16:39;;;;;;;14.33;8.67;;;0.30;99.90;;;;;;4935200;29;20231;-88
2023/02/07 02:19:26;;;;;;;14.37;8.47;;;0.30;99.90;;;;;;4931827;29;20298;-89
2023/02/07 02:22:31;;;;;;;17.83;9.07;;;0.30;99.90;;;;;;4931826;29;20190;-86
2023/02/07 02:25:19;;;;;;;14.60;8.60;;;0.30;99.90;;;;;;4928557;29;20224;-83
2023/02/07 02:28:22;;;;;;;15.80;8.40;;;0.30;99.90;;;;;;4930857;28;20548;-88
2023/02/07 02:31:07;;;;;;;16.57;8.47;;;0.30;99.90;;;;;;4927646;29;20224;-86
2023/02/07 02:33:42;;;;;;;14.70;8.03;;;0.30;99.90;;;;;;4928855;29;20285;-84
2023/02/07 02:36:21;;;;;;;14.47;8.10;;;0.30;99.90;;;;;;4932082;29;20328;-87
2023/02/07 02:38:54;;;;;;;14.27;9.53;;;0.20;99.90;;;;;;4931909;29;20232;-89
2023/02/07 02:41:24;;;;;;;16.47;8.67;;;0.20;99.90;;;;;;4932450;29;20227;-87
2023/02/07 02:43:54;;;;;;;14.57;9.23;;;0.20;99.90;;;;;;4931930;29;20206;-88
2023/02/07 02:46:24;;;;;;;14.40;8.83;;;0.20;99.90;;;;;;4934927;29;20850;-87
2023/02/07 02:48:54;;;;;;;15.37;8.00;;;0.10;99.90;;;;;;4935480;29;20218;-83
2023/02/07 02:51:21;;;;;;;17.00;8.97;;;0.10;99.90;;;;;;4935616;29;20249;-85
2023/02/07 02:53:53;;;;;;;20.40;8.80;;;0.10;99.90;;;;;;4935864;29;20218;-89
2023/02/07 02:56:49;;;;;;;15.10;8.13;;;0.10;99.90;;;;;;4934978;29;20213;-84
2023/02/07 02:59:41;;;;;;;18.57;8.83;;;0.10;99.90;;;;;;4932171;29;20212;-85
2023/02/07 03:02:21;;;;;;;14.10;9.00;;;0.00;99.90;;;;;;4933882;29;20206;-86
2023/02/07 03:05:14;;;;;;;12.57;7.40;;;0.00;99.90;;;;;;4934297;29;20862;-80
2023/02/07 03:07:49;;;;;;;14.73;7.60;;;0.00;99.90;;;;;;4933535;29;20293;-81
2023/02/07 03:10:29;;;;;;;10.10;6.67;;;0.10;99.90;;;;;;4932999;29;20901;-87
2023/02/07 03:13:01;;;;;;;15.87;8.43;;;0.10;99.90;;;;;;4931398;29;20240;-80
2023/02/07 03:15:35;;;;;;;16.90;7.27;;;0.10;99.90;;;;;;4930220;29;20205;-83
2023/02/07 03:18:09;;;;;;;10.23;6.43;;;0.10;99.90;;;;;;4929385;29;20309;-79
2023/02/07 03:20:43;;;;;;;13.07;6.43;;;0.10;99.90;;;;;;4931286;29;20272;-86
2023/02/07 03:23:11;;;;;;;12.37;6.93;;;0.10;99.90;;;;;;4934399;29;20317;-86
2023/02/07 03:25:40;;;;;;;9.90;5.83;;;0.10;99.90;;;;;;4933779;29;20217;-86
2023/02/07 03:28:09;;;;;;;8.17;5.50;;;0.10;99.90;;;;;;4934116;29;20665;-84
2023/02/07 03:30:39;;;;;;;8.67;6.03;;;0.10;99.90;;;;;;4933966;29;20296;-86
2023/02/07 03:33:11;;;;;;;9.67;6.07;;;0.10;99.90;;;;;;4931111;29;20281;-82
2023/02/07 03:35:44;;;;;;;13.47;6.70;;;0.10;99.90;;;;;;4931401;29;20964;-80
2023/02/07 03:38:11;;;;;;;12.17;7.47;;;0.00;99.90;;;;;;4930706;29;20245;-82
2023/02/07 03:40:43;;;;;;;12.00;7.87;;;0.00;99.90;;;;;;4930508;29;20502;-81
2023/02/07 03:43:15;;;;;;;11.10;6.67;;;0.00;99.90;;;;;;4949216;29;20221;-81
2023/02/07 03:45:42;;;;;;;19.20;8.43;;;0.00;99.90;;;;;;4945202;28;20212;-80
2023/02/07 03:48:09;;;;;;;18.30;8.53;;;0.00;99.90;;;;;;4930029;29;20202;-81
2023/02/07 03:50:36;;;;;;;13.47;7.73;;;-0.10;99.90;;;;;;4929525;29;20293;-84
2023/02/07 03:53:05;;;;;;;15.10;7.93;;;-0.10;99.90;;;;;;4929717;29;20325;-82
2023/02/07 03:55:32;;;;;;;15.50;7.73;;;-0.10;99.90;;;;;;4929868;29;20198;-85
2023/02/07 03:57:59;;;;;;;16.33;8.03;;;-0.10;99.90;;;;;;4929556;29;20210;-82
2023/02/07 04:00:26;;;;;;;13.50;7.73;;;-0.10;99.90;;;;;;4930171;29;20201;-80
2023/02/07 04:02:53;;;;;;;12.67;7.07;;;-0.20;99.90;;;;;;4939397;28;20201;-83
2023/02/07 04:05:20;;;;;;;9.67;6.27;;;-0.20;99.90;;;;;;4949517;29;20213;-81
2023/02/07 04:07:47;;;;;;;11.60;6.73;;;-0.20;99.90;;;;;;4948881;29;20229;-83
2023/02/07 04:10:16;;;;;;;11.73;6.63;;;-0.20;99.90;;;;;;4934126;29;20206;-81
2023/02/07 04:12:43;;;;;;;10.03;6.63;;;-0.20;99.90;;;;;;4929205;29;20225;-81
2023/02/07 04:15:10;;;;;;;15.27;7.57;;;-0.20;99.90;;;;;;4929338;29;20712;-81
2023/02/07 04:17:38;;;;;;;15.97;7.37;;;-0.20;99.90;;;;;;4929885;29;20587;-81
2023/02/07 04:20:06;;;;;;;12.57;6.40;;;-0.20;99.90;;;;;;4942974;29;20304;-80
2023/02/07 04:22:33;;;;;;;10.90;7.30;;;-0.20;99.90;;;;;;4941783;29;20214;-80
2023/02/07 04:25:00;;;;;;;11.70;7.03;;;-0.20;99.90;;;;;;4929457;29;20230;-80
2023/02/07 04:27:28;;;;;;;12.40;6.60;;;-0.20;99.90;;;;;;4929340;29;20216;-81
2023/02/07 04:29:56;;;;;;;12.17;7.67;;;-0.30;99.90;;;;;;4929016;29;20262;-81
2023/02/07 04:32:23;;;;;;;10.33;6.80;;;-0.30;99.90;;;;;;4929061;29;20222;-80
2023/02/07 04:34:50;;;;;;;9.73;6.83;;;-0.30;99.90;;;;;;4930120;29;20266;-85
2023/02/07 04:37:17;;;;;;;11.70;6.63;;;-0.30;99.90;;;;;;4941462;28;20296;-81
2023/02/07 04:39:44;;;;;;;11.67;6.60;;;-0.30;99.90;;;;;;4948136;29;20206;-81
2023/02/07 04:42:12;;;;;;;12.67;6.80;;;-0.30;99.90;;;;;;4929562;29;20313;-79
2023/02/07 04:44:40;;;;;;;14.73;6.60;;;-0.30;99.90;;;;;;4929106;29;20296;-84
2023/02/07 04:47:07;;;;;;;13.20;7.27;;;-0.30;99.90;;;;;;4931625;29;20686;-84
2023/02/07 04:49:34;;;;;;;10.60;6.37;;;-0.30;99.90;;;;;;4928030;29;20330;-86
2023/02/07 04:52:01;;;;;;;10.13;6.50;;;-0.30;99.90;;;;;;4946731;28;20228;-81
2023/02/07 04:54:27;;;;;;;11.57;7.80;;;-0.30;99.90;;;;;;4938570;29;20310;-80
2023/02/07 04:56:54;;;;;;;10.43;6.77;;;-0.30;99.90;;;;;;4926672;29;20317;-80
2023/02/07 04:59:22;;;;;;;10.30;6.63;;;-0.40;99.90;;;;;;4927537;29;20296;-80
2023/02/07 05:01:50;;;;;;;10.43;6.80;;;-0.40;99.90;;;;;;4926520;29;20206;-82
2023/02/07 05:04:17;;;;;;;14.27;7.00;;;-0.40;99.90;;;;;;4935568;23;20246;-80
2023/02/07 05:06:44;;;;;;;10.70;6.90;;;-0.40;99.90;;;;;;4926668;29;20212;-81
2023/02/07 05:09:10;;;;;;;13.70;6.73;;;-0.40;99.90;;;;;;4926559;29;20217;-84
2023/02/07 05:11:37;;;;;;;11.23;6.47;;;-0.40;99.90;;;;;;4925647;29;20241;-81
2023/02/07 05:14:04;;;;;;;11.37;6.73;;;-0.40;99.90;;;;;;4926637;29;20633;-79
2023/02/07 05:16:31;;;;;;;11.97;6.80;;;-0.30;99.90;;;;;;4926740;29;20882;-80
2023/02/07 05:18:59;;;;;;;14.70;8.03;;;-0.30;99.90;;;;;;4926727;29;20301;-80
2023/02/07 05:21:27;;;;;;;13.07;7.73;;;-0.30;99.90;;;;;;4927143;29;20213;-81
2023/02/07 05:23:54;;;;;;;15.57;7.43;;;-0.30;99.90;;;;;;4926806;29;20216;-80
2023/02/07 05:26:21;;;;;;;11.53;6.93;;;-0.30;99.90;;;;;;4925916;29;20650;-81
2023/02/07 05:28:48;;;;;;;13.43;7.70;;;-0.30;99.90;;;;;;4926672;29;20220;-80
2023/02/07 05:31:15;;;;;;;13.50;7.57;;;-0.30;99.90;;;;;;4925757;29;20210;-82
2023/02/07 05:33:40;;;;;;;12.27;6.93;;;-0.30;99.90;;;;;;4926333;29;20362;-80
2023/02/07 05:36:10;;;;;;;11.70;7.13;;;-0.30;99.90;;;;;;4926516;29;20587;-82
2023/02/07 05:38:37;;;;;;;16.23;7.20;;;-0.30;99.90;;;;;;4926249;29;20256;-83
2023/02/07 05:41:04;;;;;;;14.90;7.33;;;-0.30;99.90;;;;;;4926394;29;20241;-81
2023/02/07 05:43:30;;;;;;;10.53;7.07;;;-0.30;99.90;;;;;;4925886;29;20603;-81
2023/02/07 05:45:57;;;;;;;13.13;6.73;;;-0.30;99.90;;;;;;4926460;28;20675;-80
2023/02/07 05:48:24;;;;;;;12.50;6.60;;;-0.30;99.90;;;;;;4925978;28;20198;-82
2023/02/07 05:50:51;;;;;;;12.37;6.57;;;-0.30;99.90;;;;;;4926181;29;20554;-82
2023/02/07 05:53:20;;;;;;;11.97;6.83;;;-0.30;99.90;;;;;;4925445;29;20230;-82
2023/02/07 05:55:47;;;;;;;8.60;6.03;;;-0.30;99.90;;;;;;4925943;29;20575;-80
2023/02/07 05:58:14;;;;;;;9.60;6.50;;;-0.30;99.90;;;;;;4926086;29;20289;-81
2023/02/07 06:00:40;;;;;;;11.23;6.70;;;-0.30;99.90;;;;;;4924607;29;20357;-81
2023/02/07 06:03:07;;;;;;;11.00;7.23;;;-0.40;99.90;;;;;;4926013;29;20328;-80
2023/02/07 06:05:35;;;;;;;8.90;6.83;;;-0.40;99.90;;;;;;4927024;28;20214;-85
2023/02/07 06:08:01;;;;;;;11.83;6.70;;;-0.40;99.90;;;;;;4928502;29;20217;-84
2023/02/07 06:10:30;;;;;;;9.07;6.60;;;-0.40;99.90;;;;;;4930132;28;20206;-86
2023/02/07 06:12:57;;;;;;;11.77;7.43;;;-0.40;99.90;;;;;;4931453;29;20225;-84
2023/02/07 06:15:24;;;;;;;10.43;7.07;;;-0.40;99.90;;;;;;4945113;29;20223;-82
2023/02/07 06:17:50;;;;;;;11.03;6.97;;;-0.40;99.90;;;;;;4946215;29;20247;-81
2023/02/07 06:20:18;;;;;;;10.67;7.37;;;-0.40;99.90;;;;;;4942650;28;20290;-82
2023/02/07 06:22:44;;;;;;;12.40;7.50;;;-0.40;99.90;;;;;;4929815;28;20212;-82
2023/02/07 06:25:12;;;;;;;11.53;7.80;;;-0.40;99.90;;;;;;4929733;29;20754;-81
2023/02/07 06:27:41;;;;;;;10.40;7.30;;;-0.50;99.90;;;;;;4928486;29;20213;-81
2023/02/07 06:30:11;;;;;;;11.80;7.93;;;-0.50;99.90;;;;;;4929771;29;20284;-80
2023/02/07 06:32:38;;;;;;;15.23;7.77;;;-0.50;99.90;;;;;;4929051;28;20360;-81
2023/02/07 06:35:06;;;;;;;15.23;8.73;;;-0.40;99.90;;;;;;4928987;29;20882;-81
2023/02/07 06:37:33;;;;;;;17.47;8.90;;;-0.50;99.90;;;;;;4929291;29;20992;-80
2023/02/07 06:40:00;;;;;;;17.27;9.43;;;-0.50;99.90;;;;;;4929537;29;20232;-82
2023/02/07 06:42:27;;;;;;;17.33;9.47;;;-0.50;99.90;;;;;;4928014;28;20742;-82
2023/02/07 06:44:55;;;;;;;17.90;10.40;;;-0.50;99.90;;;;;;4928644;28;20224;-81
2023/02/07 06:47:22;;;;;;;19.27;10.43;;;-0.50;99.90;;;;;;4928386;29;20317;-81
2023/02/07 06:49:49;;;;;;;18.33;10.13;;;-0.50;99.90;;;;;;4928382;29;20749;-82
2023/02/07 06:52:16;;;;;;;22.93;10.73;;;-0.50;99.90;;;;;;4929228;29;20270;-82
2023/02/07 06:54:43;;;;;;;22.33;12.33;;;-0.50;99.90;;;;;;4929357;29;20549;-80
2023/02/07 06:57:10;;;;;;;20.30;10.97;;;-0.50;99.90;;;;;;4928789;29;20224;-81
2023/02/07 06:59:37;;;;;;;16.10;10.03;;;-0.50;99.90;;;;;;4929481;29;20210;-80
2023/02/07 07:02:06;;;;;;;20.20;10.47;;;-0.50;99.90;;;;;;4929269;29;20202;-82
2023/02/07 07:04:32;;;;;;;18.17;11.27;;;-0.50;99.90;;;;;;4928797;29;20362;-80
2023/02/07 07:06:59;;;;;;;21.40;11.40;;;-0.50;99.90;;;;;;4929580;29;20214;-80
2023/02/07 07:09:26;;;;;;;20.97;11.10;;;-0.50;99.90;;;;;;4929857;29;20307;-80
2023/02/07 07:11:53;;;;;;;21.40;11.73;;;-0.50;99.90;;;;;;4929290;29;20205;-81
2023/02/07 07:14:20;;;;;;;23.90;13.60;;;-0.50;99.90;;;;;;4932858;29;20219;-80
2023/02/07 07:16:47;;;;;;;27.50;13.73;;;-0.50;99.90;;;;;;4948235;29;20204;-81
2023/02/07 07:19:16;;;;;;;29.83;14.33;;;-0.50;99.90;;;;;;4934623;29;20301;-80
2023/02/07 07:21:43;;;;;;;29.73;14.17;;;-0.50;99.90;;;;;;4929610;29;20305;-79
2023/02/07 07:24:10;;;;;;;26.50;14.53;;;-0.50;99.90;;;;;;4929243;29;20842;-80
2023/02/07 07:26:37;;;;;;;27.03;14.07;;;-0.50;99.90;;;;;;4929459;29;20217;-80
2023/02/07 07:29:07;;;;;;;31.67;16.07;;;-0.40;99.90;;;;;;4929058;29;20249;-80
2023/02/07 07:31:33;;;;;;;38.47;18.17;;;-0.40;99.90;;;;;;4928484;28;20213;-81
2023/02/07 07:34:00;;;;;;;35.73;18.40;;;-0.30;99.90;;;;;;4929526;29;20229;-80
2023/02/07 07:36:29;;;;;;;32.63;17.13;;;-0.20;99.90;;;;;;4929250;29;20209;-82
2023/02/07 07:38:56;;;;;;;34.53;16.67;;;-0.20;99.90;;;;;;4940610;29;20314;-79
2023/02/07 07:41:23;;;;;;;28.87;16.20;;;-0.10;99.90;;;;;;4930010;29;20214;-82
2023/02/07 07:43:50;;;;;;;34.97;18.77;;;0.00;99.90;;;;;;4928792;29;20209;-83
2023/02/07 07:46:17;;;;;;;25.07;15.73;;;0.00;99.90;;;;;;4929320;29;20241;-80
2023/02/07 07:48:43;;;;;;;34.90;17.90;;;0.00;99.90;;;;;;4928975;29;20224;-80
2023/02/07 07:51:10;;;;;;;31.93;19.17;;;0.00;99.90;;;;;;4928949;29;20312;-81
2023/02/07 07:53:39;;;;;;;35.77;18.63;;;0.10;99.90;;;;;;4932150;29;20920;-81
2023/02/07 07:56:06;;;;;;;34.23;19.10;;;0.20;99.90;;;;;;4935573;29;20220;-79
2023/02/07 07:58:33;;;;;;;35.63;19.23;;;0.20;99.90;;;;;;4929141;29;20320;-82
2023/02/07 08:04:36;;;;;;;35.97;20.27;;;0.30;99.90;;;;;;4891932;28;20545;-80
2023/02/07 08:07:03;;;;;;;38.80;18.90;;;0.40;99.90;;;;;;4948042;29;20303;-81
2023/02/07 08:09:32;;;;;;;37.13;20.53;;;0.40;99.90;;;;;;4939854;28;20677;-82
2023/02/07 08:11:58;;;;;;;38.93;19.77;;;0.40;99.90;;;;;;4947792;28;20273;-80
2023/02/07 08:14:25;;;;;;;36.43;18.63;;;0.50;99.90;;;;;;4946108;28;20233;-80
2023/02/07 08:16:52;;;;;;;39.90;20.60;;;0.60;99.90;;;;;;4946449;29;20356;-80
2023/02/07 08:19:19;;;;;;;41.03;21.37;;;0.60;99.90;;;;;;4946107;28;20800;-81
2023/02/07 08:21:46;;;;;;;41.77;22.43;;;0.60;99.90;;;;;;4947671;28;20224;-82
2023/02/07 08:24:13;;;;;;;40.47;21.87;;;0.70;99.90;;;;;;4948822;28;20650;-81
2023/02/07 08:26:42;;;;;;;39.57;21.50;;;0.80;99.90;;;;;;4946055;28;20209;-80
2023/02/07 08:29:09;;;;;;;45.37;23.70;;;0.80;99.90;;;;;;4947358;29;20296;-82
2023/02/07 08:31:36;;;;;;;42.27;21.57;;;0.90;99.90;;;;;;4947812;28;20636;-81
2023/02/07 08:34:03;;;;;;;39.87;21.23;;;0.80;99.90;;;;;;4947067;29;20868;-79
2023/02/07 08:36:30;;;;;;;44.67;23.23;;;0.90;99.90;;;;;;4949077;29;20201;-82
2023/02/07 08:38:57;;;;;;;47.03;24.00;;;0.90;99.90;;;;;;4944681;28;20229;-81
2023/02/07 08:41:24;;;;;;;40.77;22.93;;;1.00;99.90;;;;;;4946361;29;20328;-80
2023/02/07 08:43:52;;;;;;;55.43;25.93;;;1.10;99.90;;;;;;4946152;28;20284;-80
2023/02/07 08:46:19;;;;;;;44.47;23.80;;;1.20;99.90;;;;;;4937171;29;20209;-81
2023/02/07 08:48:46;;;;;;;42.40;25.63;;;1.20;99.90;;;;;;4944372;28;20210;-81
2023/02/07 08:51:13;;;;;;;51.73;26.07;;;1.30;99.90;;;;;;4936195;29;20982;-86
2023/02/07 08:53:39;;;;;;;57.43;27.03;;;1.40;99.90;;;;;;4943766;28;20978;-86
2023/02/07 08:56:07;;;;;;;53.17;27.40;;;1.40;99.90;;;;;;4971585;28;20205;-86
2023/02/07 08:58:34;;;;;;;59.87;27.20;;;1.40;99.90;;;;;;4940290;28;20297;-85
2023/02/07 09:01:03;;;;;;;50.57;26.87;;;1.50;99.90;;;;;;4971334;28;20307;-86
2023/02/07 09:03:30;;;;;;;61.97;29.70;;;1.50;99.90;;;;;;4963466;28;20318;-85
2023/02/07 09:05:58;;;;;;;53.90;27.27;;;1.60;99.90;;;;;;4943345;29;20733;-84
2023/02/07 09:08:25;;;;;;;56.67;28.03;;;1.60;99.90;;;;;;4950964;28;20201;-79
2023/02/07 09:10:53;;;;;;;53.60;27.10;;;1.70;99.90;;;;;;4966338;28;20295;-79
2023/02/07 09:13:20;;;;;;;49.83;25.03;;;1.70;99.90;;;;;;4949969;28;20324;-79
2023/02/07 09:15:52;;;;;;;50.17;27.07;;;1.70;99.90;;;;;;4948249;29;20470;-84
2023/02/07 09:18:21;;;;;;;47.43;26.20;;;1.70;99.90;;;;;;4930827;29;20300;-83
2023/02/07 09:20:48;;;;;;;52.53;28.33;;;1.80;99.90;;;;;;4942217;28;20209;-86
2023/02/07 09:23:18;;;;;;;44.23;24.43;;;1.80;99.90;;;;;;4946010;28;20204;-85
2023/02/07 09:25:47;;;;;;;53.47;27.80;;;1.80;99.90;;;;;;4945078;28;20292;-85
2023/02/07 09:28:14;;;;;;;53.07;27.27;;;1.90;99.90;;;;;;4928886;29;20209;-85
2023/02/07 09:30:41;;;;;;;51.00;26.77;;;1.90;99.90;;;;;;4932047;29;20198;-84
2023/02/07 09:33:08;;;;;;;64.33;30.40;;;1.90;99.90;;;;;;4932374;29;20494;-87
2023/02/07 09:35:42;;;;;;;48.40;27.83;;;2.00;99.90;;;;;;4931767;29;20293;-86
2023/02/07 09:38:13;;;;;;;51.33;27.97;;;2.00;99.90;;;;;;4932228;28;20229;-85
2023/02/07 09:40:42;;;;;;;59.37;29.97;;;2.10;99.90;;;;;;4937943;29;20233;-80
2023/02/07 09:43:20;;;;;;;47.97;26.93;;;2.10;99.90;;;;;;4951214;29;20202;-83
2023/02/07 09:45:55;;;;;;;51.67;26.90;;;2.10;99.90;;;;;;4949036;28;20546;-84
2023/02/07 09:48:27;;;;;;;48.97;26.97;;;2.20;99.90;;;;;;4932493;29;20288;-85
2023/02/07 09:51:00;;;;;;;48.37;26.50;;;2.20;99.90;;;;;;4932378;29;20225;-83
2023/02/07 09:53:32;;;;;;;55.83;29.17;;;2.20;99.90;;;;;;4930323;29;20240;-83
2023/02/07 09:56:00;;;;;;;60.43;29.57;;;2.20;99.90;;;;;;4930051;29;20277;-82
2023/02/07 09:58:37;;;;;;;57.57;28.67;;;2.30;99.90;;;;;;4940937;29;20320;-83
2023/02/07 10:01:09;;;;;;;54.87;28.37;;;2.40;99.90;;;;;;4949100;29;20205;-80
2023/02/07 10:03:43;;;;;;;62.83;31.50;;;2.50;99.90;;;;;;4944473;29;20205;-78
2023/02/07 10:06:18;;;;;;;56.17;30.83;;;2.50;99.90;;;;;;4927680;29;20316;-80
2023/02/07 10:08:46;;;;;;;58.93;29.63;;;2.60;99.90;;;;;;4927408;29;20209;-81
2023/02/07 10:11:20;;;;;;;49.17;29.50;;;2.70;99.90;;;;;;4928751;29;20285;-81
2023/02/07 10:13:59;;;;;;;57.63;30.10;;;2.80;99.90;;;;;;4926819;29;20217;-80
2023/02/07 10:16:49;;;;;;;59.57;30.43;;;2.80;99.90;;;;;;4927520;29;20292;-81
2023/02/07 10:19:27;;;;;;;54.27;30.40;;;2.90;99.90;;;;;;4926626;29;20210;-79
2023/02/07 10:22:08;;;;;;;61.70;31.37;;;3.00;99.90;;;;;;4926302;29;20297;-80
2023/02/07 10:24:53;;;;;;;56.87;30.27;;;3.00;99.90;;;;;;4926803;29;20201;-81
2023/02/07 10:27:28;;;;;;;54.57;31.73;;;3.10;99.90;;;;;;4926039;29;20204;-79
2023/02/07 10:30:00;;;;;;;64.30;32.60;;;3.20;99.90;;;;;;4926727;29;20959;-79
2023/02/07 10:32:31;;;;;;;58.03;29.97;;;3.20;99.90;;;;;;4926428;29;20205;-79
2023/02/07 10:35:02;;;;;;;54.03;30.40;;;3.30;99.90;;;;;;4926269;29;20365;-79
2023/02/07 10:37:37;;;;;;;61.23;32.67;;;3.40;99.90;;;;;;4926599;29;20262;-80
2023/02/07 10:40:11;;;;;;;60.70;31.70;;;3.40;99.90;;;;;;4926579;29;20210;-80
2023/02/07 10:42:40;;;;;;;60.83;31.27;;;3.50;99.90;;;;;;4925992;29;20215;-80
2023/02/07 10:45:13;;;;;;;57.33;29.87;;;3.50;99.90;;;;;;4927004;29;20910;-80
2023/02/07 10:47:40;;;;;;;53.93;29.77;;;3.60;99.90;;;;;;4926453;29;20218;-79
2023/02/07 10:50:12;;;;;;;50.23;29.60;;;3.70;99.90;;;;;;4927190;29;20208;-80
2023/02/07 10:52:44;;;;;;;50.17;28.33;;;3.80;99.90;;;;;;4937629;29;20209;-81
2023/02/07 10:55:13;;;;;;;48.57;27.50;;;3.80;99.90;;;;;;4932006;29;20230;-79
2023/02/07 10:57:40;;;;;;;61.97;29.87;;;3.90;99.90;;;;;;4927104;29;20210;-80
2023/02/07 11:00:17;;;;;;;48.73;27.53;;;4.00;99.90;;;;;;4936785;29;20219;-81
2023/02/07 11:02:51;;;;;;;46.77;26.37;;;4.10;99.90;;;;;;4942136;28;20244;-80
2023/02/07 11:05:31;;;;;;;46.53;26.60;;;4.20;99.90;;;;;;4944796;28;20336;-81
2023/02/07 11:08:01;;;;;;;47.37;28.37;;;4.30;99.90;;;;;;4937288;29;20212;-80
2023/02/07 11:10:33;;;;;;;44.20;27.90;;;4.30;99.90;;;;;;4930132;29;20202;-80
2023/02/07 11:13:01;;;;;;;43.20;26.00;;;4.40;99.90;;;;;;4932375;29;20228;-81
2023/02/07 11:15:36;;;;;;;39.03;27.03;;;4.50;99.90;;;;;;4949025;29;20511;-79
2023/02/07 11:18:04;;;;;;;44.57;26.40;;;4.50;99.90;;;;;;4937924;28;20218;-81
2023/02/07 11:20:35;;;;;;;42.50;24.00;;;4.60;99.90;;;;;;4930433;29;20289;-82
2023/02/07 11:23:11;;;;;;;38.87;25.73;;;4.60;99.90;;;;;;4931162;29;20689;-83
2023/02/07 11:25:42;;;;;;;40.77;25.17;;;4.70;99.90;;;;;;4934972;29;20209;-81
2023/02/07 11:28:19;;;;;;;40.27;23.70;;;4.80;99.90;;;;;;4948666;28;20229;-81
2023/02/07 11:30:47;;;;;;;34.50;21.77;;;4.90;99.90;;;;;;4934985;29;20217;-80
2023/02/07 11:33:19;;;;;;;35.87;22.07;;;5.00;99.90;;;;;;4930271;29;20342;-80
2023/02/07 11:36:01;;;;;;;33.37;21.93;;;5.10;99.90;;;;;;4950041;28;20213;-81
2023/02/07 11:38:30;;;;;;;35.17;20.50;;;5.20;99.90;;;;;;4947789;29;20217;-81
2023/02/07 11:41:02;;;;;;;29.07;19.00;;;5.20;99.90;;;;;;4949827;29;20697;-81
2023/02/07 11:43:30;;;;;;;32.00;19.80;;;5.30;99.90;;;;;;4950319;28;20193;-81
2023/02/07 11:46:09;;;;;;;32.83;19.30;;;5.40;99.90;;;;;;4951091;29;20347;-82
2023/02/07 11:48:39;;;;;;;32.63;17.03;;;5.50;99.90;;;;;;4950051;29;20211;-81
2023/02/07 11:51:09;;;;;;;24.77;15.10;;;5.50;99.90;;;;;;4931940;29;20261;-83
2023/02/07 11:53:39;;;;;;;24.10;14.17;;;5.50;99.90;;;;;;4931066;29;20234;-81
2023/02/07 11:56:08;;;;;;;21.87;13.30;;;5.50;99.90;;;;;;4931793;29;20220;-82
2023/02/07 11:58:37;;;;;;;20.67;13.87;;;5.60;99.90;;;;;;4930720;28;20210;-81
2023/02/07 12:01:06;;;;;;;21.60;12.90;;;5.60;99.90;;;;;;4931413;29;20273;-81
2023/02/07 12:03:40;;;;;;;24.37;14.17;;;5.70;99.90;;;;;;4930743;29;20285;-81
2023/02/07 12:06:13;;;;;;;22.37;13.83;;;5.70;99.90;;;;;;4930211;29;20200;-81
2023/02/07 12:08:41;;;;;;;21.30;12.13;;;5.70;99.90;;;;;;4940352;28;20201;-82
2023/02/07 12:11:15;;;;;;;17.67;11.80;;;5.80;99.90;;;;;;4969056;28;20291;-81
2023/02/07 12:13:45;;;;;;;18.53;11.27;;;5.80;99.90;;;;;;4958207;28;20236;-81
2023/02/07 12:16:18;;;;;;;17.27;11.40;;;5.80;99.90;;;;;;4949747;29;20205;-81
2023/02/07 12:18:51;;;;;;;19.20;11.60;;;5.90;99.90;;;;;;4933517;28;20205;-80
2023/02/07 12:21:22;;;;;;;18.33;11.87;;;5.90;99.90;;;;;;4929705;29;20245;-82
2023/02/07 12:23:59;;;;;;;16.70;11.30;;;6.00;99.90;;;;;;4929846;29;20212;-81
2023/02/07 12:26:30;;;;;;;19.20;12.63;;;6.00;99.90;;;;;;4947020;28;20209;-81
2023/02/07 12:29:13;;;;;;;18.43;10.70;;;6.10;99.90;;;;;;4945361;28;20211;-80
2023/02/07 12:31:51;;;;;;;18.47;10.80;;;6.10;99.90;;;;;;4947256;28;20197;-80
2023/02/07 12:34:27;;;;;;;12.77;9.97;;;6.10;99.90;;;;;;4948038;29;20220;-82
2023/02/07 12:37:00;;;;;;;18.10;10.27;;;6.20;99.90;;;;;;4947425;28;20203;-82
2023/02/07 12:39:35;;;;;;;13.23;9.57;;;6.20;99.90;;;;;;4943926;29;20200;-79
2023/02/07 12:42:18;;;;;;;13.37;8.80;;;6.10;99.90;;;;;;4946727;28;20619;-82
2023/02/07 12:44:53;;;;;;;17.10;10.47;;;6.20;99.90;;;;;;4946697;28;20207;-80
2023/02/07 12:47:29;;;;;;;15.90;9.50;;;6.20;99.90;;;;;;4946986;29;20197;-80
2023/02/07 12:50:15;;;;;;;16.53;9.73;;;6.20;99.90;;;;;;4942247;28;20288;-81
2023/02/07 12:52:48;;;;;;;15.60;8.97;;;6.20;99.90;;;;;;4946660;28;20263;-79
2023/02/07 12:55:27;;;;;;;14.10;9.23;;;6.20;99.90;;;;;;4940695;28;20236;-79
2023/02/07 12:58:07;;;;;;;15.40;8.80;;;6.20;99.90;;;;;;4943091;28;20312;-80